sensor_id;sensor_type;location;lat;lon;timestamp;pressure;altitude;pressure_sealevel;temperature;humidity
75549;BME280;64133;56.002;37.208;2024-02-14T00:03:28;99968.24;;;-11.34;75.41
75549;BME280;64133;56.002;37.208;2024-02-14T00:08:33;99965.27;;;-11.35;76.17
75549;BME280;64133;56.002;37.208;2024-02-14T00:13:38;99965.57;;;-11.42;75.18
75549;BME280;64133;56.002;37.208;2024-02-14T00:18:43;99960.82;;;-11.49;75.66
75549;BME280;64133;56.002;37.208;2024-02-14T00:23:48;99965.63;;;-11.66;75.79
75549;BME280;64133;56.002;37.208;2024-02-14T00:28:53;99959.38;;;-11.58;75.37
75549;BME280;64133;56.002;37.208;2024-02-14T00:33:58;99956.17;;;-11.48;75.84
75549;BME280;64133;56.002;37.208;2024-02-14T00:39:03;99959.64;;;-11.43;76.39
75549;BME280;64133;56.002;37.208;2024-02-14T00:44:08;99969.08;;;-11.62;75.32
75549;BME280;64133;56.002;37.208;2024-02-14T00:49:13;99972.20;;;-11.52;75.93
75549;BME280;64133;56.002;37.208;2024-02-14T00:54:18;99968.78;;;-11.79;75.37
75549;BME280;64133;56.002;37.208;2024-02-14T00:59:23;99972.25;;;-11.74;75.11
75549;BME280;64133;56.002;37.208;2024-02-14T01:04:29;99971.75;;;-12.03;75.72
75549;BME280;64133;56.002;37.208;2024-02-14T01:09:34;99976.05;;;-12.00;75.75
75549;BME280;64133;56.002;37.208;2024-02-14T01:14:39;99980.44;;;-11.92;75.77
75549;BME280;64133;56.002;37.208;2024-02-14T01:19:44;99981.55;;;-12.01;75.62
75549;BME280;64133;56.002;37.208;2024-02-14T01:24:49;99981.88;;;-11.82;76.50
75549;BME280;64133;56.002;37.208;2024-02-14T01:29:54;99984.66;;;-11.92;75.72
75549;BME280;64133;56.002;37.208;2024-02-14T01:34:59;99988.88;;;-12.14;75.45
75549;BME280;64133;56.002;37.208;2024-02-14T01:40:06;99987.73;;;-12.08;75.52
75549;BME280;64133;56.002;37.208;2024-02-14T01:45:11;99997.22;;;-12.22;75.79
75549;BME280;64133;56.002;37.208;2024-02-14T01:50:16;100001.36;;;-12.05;75.59
75549;BME280;64133;56.002;37.208;2024-02-14T01:55:22;100005.09;;;-12.08;75.52
75549;BME280;64133;56.002;37.208;2024-02-14T02:00:27;100006.59;;;-12.39;75.08
75549;BME280;64133;56.002;37.208;2024-02-14T02:05:32;100009.22;;;-12.35;75.50
75549;BME280;64133;56.002;37.208;2024-02-14T02:10:38;100015.86;;;-12.20;75.68
75549;BME280;64133;56.002;37.208;2024-02-14T02:15:43;100021.66;;;-12.27;75.16
75549;BME280;64133;56.002;37.208;2024-02-14T02:20:48;100019.21;;;-12.22;75.63
75549;BME280;64133;56.002;37.208;2024-02-14T02:25:52;100028.80;;;-12.28;75.78
75549;BME280;64133;56.002;37.208;2024-02-14T02:30:57;100024.30;;;-12.41;75.17
75549;BME280;64133;56.002;37.208;2024-02-14T02:36:02;100031.04;;;-12.43;75.79
75549;BME280;64133;56.002;37.208;2024-02-14T02:41:07;100028.50;;;-12.43;75.42
75549;BME280;64133;56.002;37.208;2024-02-14T02:46:12;100043.44;;;-12.57;75.46
75549;BME280;64133;56.002;37.208;2024-02-14T02:51:18;100048.70;;;-12.48;76.04
75549;BME280;64133;56.002;37.208;2024-02-14T02:56:23;100045.88;;;-12.61;75.37
75549;BME280;64133;56.002;37.208;2024-02-14T03:01:28;100050.97;;;-12.60;75.36
75549;BME280;64133;56.002;37.208;2024-02-14T03:06:33;100048.07;;;-12.58;75.51
75549;BME280;64133;56.002;37.208;2024-02-14T03:11:38;100052.63;;;-12.62;75.39
75549;BME280;64133;56.002;37.208;2024-02-14T03:16:43;100058.72;;;-12.73;75.47
75549;BME280;64133;56.002;37.208;2024-02-14T03:21:48;100055.77;;;-12.72;75.34
75549;BME280;64133;56.002;37.208;2024-02-14T03:26:53;100061.88;;;-12.64;75.42
75549;BME280;64133;56.002;37.208;2024-02-14T03:31:58;100067.80;;;-12.82;75.70
75549;BME280;64133;56.002;37.208;2024-02-14T03:37:03;100067.57;;;-12.74;75.64
75549;BME280;64133;56.002;37.208;2024-02-14T03:42:08;100077.41;;;-12.88;75.61
75549;BME280;64133;56.002;37.208;2024-02-14T03:47:13;100078.80;;;-12.82;75.60
75549;BME280;64133;56.002;37.208;2024-02-14T03:52:18;100080.48;;;-12.82;75.38
75549;BME280;64133;56.002;37.208;2024-02-14T03:57:23;100079.33;;;-12.95;75.50
75549;BME280;64133;56.002;37.208;2024-02-14T04:02:28;100079.00;;;-12.92;75.11
75549;BME280;64133;56.002;37.208;2024-02-14T04:07:33;100080.98;;;-13.14;75.71
75549;BME280;64133;56.002;37.208;2024-02-14T04:12:38;100080.80;;;-13.05;75.83
75549;BME280;64133;56.002;37.208;2024-02-14T04:17:43;100084.95;;;-13.07;75.27
75549;BME280;64133;56.002;37.208;2024-02-14T04:22:48;100093.58;;;-13.18;75.31
75549;BME280;64133;56.002;37.208;2024-02-14T04:27:53;100097.38;;;-13.18;75.49
75549;BME280;64133;56.002;37.208;2024-02-14T04:32:58;100090.19;;;-13.18;75.17
75549;BME280;64133;56.002;37.208;2024-02-14T04:38:04;100092.64;;;-13.23;75.46
75549;BME280;64133;56.002;37.208;2024-02-14T04:43:09;100097.71;;;-13.23;75.53
75549;BME280;64133;56.002;37.208;2024-02-14T04:48:13;100108.97;;;-13.45;75.23
75549;BME280;64133;56.002;37.208;2024-02-14T04:53:19;100102.88;;;-13.35;75.84
75549;BME280;64133;56.002;37.208;2024-02-14T04:58:24;100115.66;;;-13.31;75.37
75549;BME280;64133;56.002;37.208;2024-02-14T05:03:29;100113.54;;;-13.31;75.04
75549;BME280;64133;56.002;37.208;2024-02-14T05:08:34;100127.27;;;-13.22;75.74
75549;BME280;64133;56.002;37.208;2024-02-14T05:13:39;100130.41;;;-13.14;75.12
75549;BME280;64133;56.002;37.208;2024-02-14T05:18:44;100145.63;;;-13.14;74.68
75549;BME280;64133;56.002;37.208;2024-02-14T05:23:51;100147.74;;;-13.14;75.19
75549;BME280;64133;56.002;37.208;2024-02-14T05:28:56;100153.90;;;-13.20;74.77
75549;BME280;64133;56.002;37.208;2024-02-14T05:34:01;100152.20;;;-13.23;74.58
75549;BME280;64133;56.002;37.208;2024-02-14T05:39:10;100160.36;;;-13.15;74.59
75549;BME280;64133;56.002;37.208;2024-02-14T05:44:15;100164.16;;;-13.15;74.57
75549;BME280;64133;56.002;37.208;2024-02-14T05:49:23;100162.97;;;-12.97;74.45
75549;BME280;64133;56.002;37.208;2024-02-14T05:54:33;100167.34;;;-13.07;74.75
75549;BME280;64133;56.002;37.208;2024-02-14T05:59:49;100171.25;;;-12.86;73.95
75549;BME280;64133;56.002;37.208;2024-02-14T06:04:55;100166.81;;;-12.78;74.07
75549;BME280;64133;56.002;37.208;2024-02-14T06:10:00;100168.28;;;-12.70;73.65
75549;BME280;64133;56.002;37.208;2024-02-14T06:15:06;100171.60;;;-12.54;73.20
75549;BME280;64133;56.002;37.208;2024-02-14T06:20:13;100176.51;;;-12.25;72.46
75549;BME280;64133;56.002;37.208;2024-02-14T06:25:18;100181.92;;;-12.29;72.29
75549;BME280;64133;56.002;37.208;2024-02-14T06:30:23;100177.55;;;-12.17;71.85
75549;BME280;64133;56.002;37.208;2024-02-14T06:35:29;100180.63;;;-12.49;71.30
75549;BME280;64133;56.002;37.208;2024-02-14T06:40:33;100181.39;;;-11.97;71.99
75549;BME280;64133;56.002;37.208;2024-02-14T06:45:38;100183.63;;;-11.90;71.89
75549;BME280;64133;56.002;37.208;2024-02-14T06:50:43;100189.69;;;-12.04;71.15
75549;BME280;64133;56.002;37.208;2024-02-14T06:56:02;100191.81;;;-12.03;71.05
75549;BME280;64133;56.002;37.208;2024-02-14T07:01:07;100186.66;;;-11.87;71.69
75549;BME280;64133;56.002;37.208;2024-02-14T07:06:12;100192.55;;;-11.88;71.03
75549;BME280;64133;56.002;37.208;2024-02-14T07:11:17;100198.10;;;-11.66;70.46
75549;BME280;64133;56.002;37.208;2024-02-14T07:16:22;100198.53;;;-11.65;71.05
75549;BME280;64133;56.002;37.208;2024-02-14T07:21:27;100190.91;;;-11.22;69.53
75549;BME280;64133;56.002;37.208;2024-02-14T07:26:32;100198.06;;;-11.01;69.60
75549;BME280;64133;56.002;37.208;2024-02-14T07:31:37;100194.39;;;-10.70;69.13
75549;BME280;64133;56.002;37.208;2024-02-14T07:36:42;100205.05;;;-10.91;69.15
75549;BME280;64133;56.002;37.208;2024-02-14T07:41:47;100199.41;;;-10.75;68.51
75549;BME280;64133;56.002;37.208;2024-02-14T07:46:52;100197.69;;;-10.21;68.94
75549;BME280;64133;56.002;37.208;2024-02-14T07:51:57;100205.52;;;-10.39;67.94
75549;BME280;64133;56.002;37.208;2024-02-14T07:57:02;100207.91;;;-10.48;67.56
75549;BME280;64133;56.002;37.208;2024-02-14T08:02:07;100214.44;;;-10.37;67.55
75549;BME280;64133;56.002;37.208;2024-02-14T08:07:12;100217.36;;;-10.11;67.73
75549;BME280;64133;56.002;37.208;2024-02-14T08:12:17;100221.44;;;-9.94;67.70
75549;BME280;64133;56.002;37.208;2024-02-14T08:17:22;100223.02;;;-9.71;67.45
75549;BME280;64133;56.002;37.208;2024-02-14T08:22:27;100222.48;;;-9.13;67.26
75549;BME280;64133;56.002;37.208;2024-02-14T08:27:35;100226.51;;;-8.96;65.31
75549;BME280;64133;56.002;37.208;2024-02-14T08:32:40;100228.78;;;-8.82;64.94
75549;BME280;64133;56.002;37.208;2024-02-14T08:37:45;100223.96;;;-8.53;65.65
75549;BME280;64133;56.002;37.208;2024-02-14T08:42:50;100225.08;;;-8.68;64.48
75549;BME280;64133;56.002;37.208;2024-02-14T08:48:13;100225.41;;;-8.78;64.71
75549;BME280;64133;56.002;37.208;2024-02-14T08:53:18;100226.82;;;-8.64;65.25
75549;BME280;64133;56.002;37.208;2024-02-14T08:58:23;100227.67;;;-8.64;64.59
75549;BME280;64133;56.002;37.208;2024-02-14T09:03:28;100227.06;;;-8.33;63.96
75549;BME280;64133;56.002;37.208;2024-02-14T09:08:33;100235.95;;;-8.43;64.60
75549;BME280;64133;56.002;37.208;2024-02-14T09:13:38;100228.72;;;-7.81;65.33
75549;BME280;64133;56.002;37.208;2024-02-14T09:18:44;100239.61;;;-8.05;62.68
75549;BME280;64133;56.002;37.208;2024-02-14T09:23:49;100244.34;;;-8.02;63.75
75549;BME280;64133;56.002;37.208;2024-02-14T09:28:54;100242.53;;;-8.15;63.60
75549;BME280;64133;56.002;37.208;2024-02-14T09:34:02;100242.33;;;-7.84;62.99
75549;BME280;64133;56.002;37.208;2024-02-14T09:39:04;100247.58;;;-8.23;62.22
75549;BME280;64133;56.002;37.208;2024-02-14T09:44:08;100242.98;;;-8.11;63.36
75549;BME280;64133;56.002;37.208;2024-02-14T09:49:13;100245.00;;;-7.70;62.59
75549;BME280;64133;56.002;37.208;2024-02-14T09:54:18;100239.73;;;-7.90;62.73
75549;BME280;64133;56.002;37.208;2024-02-14T09:59:23;100242.78;;;-7.81;62.66
75549;BME280;64133;56.002;37.208;2024-02-14T10:04:28;100243.92;;;-7.30;62.91
75549;BME280;64133;56.002;37.208;2024-02-14T10:09:40;100244.97;;;-7.73;62.99
75549;BME280;64133;56.002;37.208;2024-02-14T10:14:48;100251.22;;;-7.15;63.10
75549;BME280;64133;56.002;37.208;2024-02-14T10:19:58;100250.97;;;-7.70;62.27
75549;BME280;64133;56.002;37.208;2024-02-14T10:25:04;100250.19;;;-7.55;61.72
75549;BME280;64133;56.002;37.208;2024-02-14T10:30:10;100247.17;;;-7.61;61.58
75549;BME280;64133;56.002;37.208;2024-02-14T10:35:15;100252.41;;;-7.36;63.20
75549;BME280;64133;56.002;37.208;2024-02-14T10:40:20;100245.50;;;-7.57;62.43
75549;BME280;64133;56.002;37.208;2024-02-14T10:45:25;100245.56;;;-7.43;61.83
75549;BME280;64133;56.002;37.208;2024-02-14T10:50:33;100241.72;;;-7.40;61.93
75549;BME280;64133;56.002;37.208;2024-02-14T10:55:38;100228.98;;;-7.28;61.76
75549;BME280;64133;56.002;37.208;2024-02-14T11:00:44;100238.43;;;-7.16;62.42
75549;BME280;64133;56.002;37.208;2024-02-14T11:05:49;100242.73;;;-7.01;61.90
75549;BME280;64133;56.002;37.208;2024-02-14T11:10:55;100245.75;;;-6.93;62.25
75549;BME280;64133;56.002;37.208;2024-02-14T11:16:03;100251.14;;;-7.31;61.48
75549;BME280;64133;56.002;37.208;2024-02-14T11:21:16;100244.91;;;-6.93;62.11
75549;BME280;64133;56.002;37.208;2024-02-14T11:26:21;100249.56;;;-7.02;61.42
75549;BME280;64133;56.002;37.208;2024-02-14T11:31:32;100240.97;;;-7.19;62.50
75549;BME280;64133;56.002;37.208;2024-02-14T11:36:37;100237.16;;;-7.16;62.25
75549;BME280;64133;56.002;37.208;2024-02-14T11:41:42;100240.19;;;-7.03;61.85
75549;BME280;64133;56.002;37.208;2024-02-14T11:46:47;100245.39;;;-6.78;62.05
75549;BME280;64133;56.002;37.208;2024-02-14T11:51:52;100232.58;;;-6.72;62.12
75549;BME280;64133;56.002;37.208;2024-02-14T11:56:57;100232.55;;;-6.91;61.78
75549;BME280;64133;56.002;37.208;2024-02-14T12:02:02;100232.94;;;-7.05;61.27
75549;BME280;64133;56.002;37.208;2024-02-14T12:07:07;100238.09;;;-6.84;61.63
75549;BME280;64133;56.002;37.208;2024-02-14T12:12:14;100231.99;;;-7.24;61.67
75549;BME280;64133;56.002;37.208;2024-02-14T12:17:19;100236.31;;;-7.11;61.36
75549;BME280;64133;56.002;37.208;2024-02-14T12:22:24;100230.84;;;-6.92;62.69
75549;BME280;64133;56.002;37.208;2024-02-14T12:27:32;100230.35;;;-7.06;62.41
75549;BME280;64133;56.002;37.208;2024-02-14T12:32:37;100229.11;;;-6.93;62.17
75549;BME280;64133;56.002;37.208;2024-02-14T12:37:42;100225.61;;;-7.19;62.29
75549;BME280;64133;56.002;37.208;2024-02-14T12:42:47;100229.86;;;-7.23;62.27
75549;BME280;64133;56.002;37.208;2024-02-14T12:47:52;100226.89;;;-7.27;62.88
75549;BME280;64133;56.002;37.208;2024-02-14T12:52:58;100226.84;;;-7.31;62.90
75549;BME280;64133;56.002;37.208;2024-02-14T12:58:03;100226.08;;;-7.06;62.96
75549;BME280;64133;56.002;37.208;2024-02-14T13:03:10;100229.41;;;-7.35;62.84
75549;BME280;64133;56.002;37.208;2024-02-14T13:08:15;100231.55;;;-7.29;63.18
75549;BME280;64133;56.002;37.208;2024-02-14T13:13:21;100238.70;;;-7.50;63.18
75549;BME280;64133;56.002;37.208;2024-02-14T13:18:26;100243.86;;;-7.41;63.30
75549;BME280;64133;56.002;37.208;2024-02-14T13:23:31;100249.40;;;-7.40;63.70
75549;BME280;64133;56.002;37.208;2024-02-14T13:28:43;100253.20;;;-7.52;63.47
75549;BME280;64133;56.002;37.208;2024-02-14T13:33:46;100247.60;;;-7.58;63.74
75549;BME280;64133;56.002;37.208;2024-02-14T13:38:51;100258.69;;;-7.61;63.97
75549;BME280;64133;56.002;37.208;2024-02-14T13:43:56;100260.39;;;-7.58;64.32
75549;BME280;64133;56.002;37.208;2024-02-14T13:49:01;100261.59;;;-7.72;63.90
75549;BME280;64133;56.002;37.208;2024-02-14T13:54:06;100261.53;;;-7.79;64.72
75549;BME280;64133;56.002;37.208;2024-02-14T13:59:14;100261.16;;;-7.73;64.86
75549;BME280;64133;56.002;37.208;2024-02-14T14:04:19;100257.58;;;-8.01;64.59
75549;BME280;64133;56.002;37.208;2024-02-14T14:09:25;100258.39;;;-8.02;65.27
75549;BME280;64133;56.002;37.208;2024-02-14T14:14:30;100269.08;;;-7.98;65.22
75549;BME280;64133;56.002;37.208;2024-02-14T14:19:35;100265.31;;;-7.92;65.52
75549;BME280;64133;56.002;37.208;2024-02-14T14:24:41;100272.02;;;-8.01;65.49
75549;BME280;64133;56.002;37.208;2024-02-14T14:29:46;100273.27;;;-8.07;65.82
75549;BME280;64133;56.002;37.208;2024-02-14T14:34:51;100267.77;;;-8.04;66.10
75549;BME280;64133;56.002;37.208;2024-02-14T14:39:56;100273.73;;;-8.05;65.88
75549;BME280;64133;56.002;37.208;2024-02-14T14:45:01;100280.58;;;-7.98;66.42
75549;BME280;64133;56.002;37.208;2024-02-14T14:50:06;100277.20;;;-7.95;66.49
75549;BME280;64133;56.002;37.208;2024-02-14T14:55:12;100282.71;;;-7.97;66.22
75549;BME280;64133;56.002;37.208;2024-02-14T15:00:18;100280.47;;;-8.10;66.58
75549;BME280;64133;56.002;37.208;2024-02-14T15:05:23;100280.75;;;-8.27;66.98
75549;BME280;64133;56.002;37.208;2024-02-14T15:10:28;100284.63;;;-8.23;67.31
75549;BME280;64133;56.002;37.208;2024-02-14T15:15:33;100286.36;;;-8.20;66.83
75549;BME280;64133;56.002;37.208;2024-02-14T15:20:39;100279.97;;;-8.20;67.14
75549;BME280;64133;56.002;37.208;2024-02-14T15:25:43;100291.89;;;-8.22;67.19
75549;BME280;64133;56.002;37.208;2024-02-14T15:30:48;100282.88;;;-8.28;67.05
75549;BME280;64133;56.002;37.208;2024-02-14T15:36:11;100287.14;;;-8.29;67.18
75549;BME280;64133;56.002;37.208;2024-02-14T15:41:17;100281.60;;;-8.28;67.41
75549;BME280;64133;56.002;37.208;2024-02-14T15:46:22;100286.11;;;-8.51;67.40
75549;BME280;64133;56.002;37.208;2024-02-14T15:51:27;100296.03;;;-8.38;67.57
75549;BME280;64133;56.002;37.208;2024-02-14T15:56:32;100288.70;;;-8.46;67.49
75549;BME280;64133;56.002;37.208;2024-02-14T16:01:37;100293.47;;;-8.40;67.99
75549;BME280;64133;56.002;37.208;2024-02-14T16:06:42;100306.73;;;-8.28;67.84
75549;BME280;64133;56.002;37.208;2024-02-14T16:11:47;100297.65;;;-8.46;67.91
75549;BME280;64133;56.002;37.208;2024-02-14T16:16:52;100298.22;;;-8.73;68.09
75549;BME280;64133;56.002;37.208;2024-02-14T16:21:57;100310.33;;;-8.54;68.07
75549;BME280;64133;56.002;37.208;2024-02-14T16:27:03;100316.72;;;-8.55;67.96
75549;BME280;64133;56.002;37.208;2024-02-14T16:32:08;100317.09;;;-8.59;67.64
75549;BME280;64133;56.002;37.208;2024-02-14T16:37:13;100317.89;;;-8.65;68.04
75549;BME280;64133;56.002;37.208;2024-02-14T16:42:18;100326.51;;;-8.55;68.00
75549;BME280;64133;56.002;37.208;2024-02-14T16:47:23;100325.14;;;-8.63;67.55
75549;BME280;64133;56.002;37.208;2024-02-14T16:52:28;100329.34;;;-8.68;67.63
75549;BME280;64133;56.002;37.208;2024-02-14T16:57:33;100328.43;;;-8.74;68.17
75549;BME280;64133;56.002;37.208;2024-02-14T17:02:38;100332.43;;;-8.95;67.99
75549;BME280;64133;56.002;37.208;2024-02-14T17:07:43;100328.93;;;-9.01;68.08
75549;BME280;64133;56.002;37.208;2024-02-14T17:12:48;100327.83;;;-8.52;68.40
75549;BME280;64133;56.002;37.208;2024-02-14T17:17:53;100328.49;;;-8.67;67.92
75549;BME280;64133;56.002;37.208;2024-02-14T17:22:58;100329.23;;;-8.78;67.29
75549;BME280;64133;56.002;37.208;2024-02-14T17:28:04;100333.11;;;-9.08;68.26
75549;BME280;64133;56.002;37.208;2024-02-14T17:33:09;100333.96;;;-9.09;68.19
75549;BME280;64133;56.002;37.208;2024-02-14T17:38:14;100328.39;;;-9.12;68.30
75549;BME280;64133;56.002;37.208;2024-02-14T17:43:19;100330.76;;;-9.25;68.19
75549;BME280;64133;56.002;37.208;2024-02-14T17:48:24;100334.95;;;-9.30;68.33
75549;BME280;64133;56.002;37.208;2024-02-14T17:53:29;100334.05;;;-9.32;68.45
75549;BME280;64133;56.002;37.208;2024-02-14T17:58:34;100328.03;;;-9.38;68.81
75549;BME280;64133;56.002;37.208;2024-02-14T18:03:39;100339.25;;;-9.26;68.57
75549;BME280;64133;56.002;37.208;2024-02-14T18:08:44;100335.24;;;-9.40;68.60
75549;BME280;64133;56.002;37.208;2024-02-14T18:13:49;100336.09;;;-9.40;68.59
75549;BME280;64133;56.002;37.208;2024-02-14T18:18:54;100335.00;;;-9.26;68.36
75549;BME280;64133;56.002;37.208;2024-02-14T18:23:59;100340.35;;;-9.39;68.42
75549;BME280;64133;56.002;37.208;2024-02-14T18:29:04;100338.95;;;-9.48;69.05
75549;BME280;64133;56.002;37.208;2024-02-14T18:34:09;100344.98;;;-9.41;68.70
75549;BME280;64133;56.002;37.208;2024-02-14T18:39:14;100336.95;;;-9.39;68.92
75549;BME280;64133;56.002;37.208;2024-02-14T18:44:25;100332.88;;;-9.26;68.61
75549;BME280;64133;56.002;37.208;2024-02-14T18:49:53;100329.60;;;-9.47;68.92
75549;BME280;64133;56.002;37.208;2024-02-14T18:54:58;100326.03;;;-9.29;68.57
75549;BME280;64133;56.002;37.208;2024-02-14T19:00:04;100318.92;;;-9.50;69.05
75549;BME280;64133;56.002;37.208;2024-02-14T19:05:08;100324.55;;;-9.44;69.11
75549;BME280;64133;56.002;37.208;2024-02-14T19:10:13;100326.92;;;-9.56;69.31
75549;BME280;64133;56.002;37.208;2024-02-14T19:15:18;100324.14;;;-9.42;69.24
75549;BME280;64133;56.002;37.208;2024-02-14T19:20:23;100320.69;;;-9.46;68.90
75549;BME280;64133;56.002;37.208;2024-02-14T19:25:28;100327.66;;;-9.34;69.14
75549;BME280;64133;56.002;37.208;2024-02-14T19:30:33;100318.02;;;-9.53;69.04
75549;BME280;64133;56.002;37.208;2024-02-14T19:35:38;100323.22;;;-9.49;69.29
75549;BME280;64133;56.002;37.208;2024-02-14T19:40:43;100319.84;;;-9.45;69.16
75549;BME280;64133;56.002;37.208;2024-02-14T19:45:48;100307.69;;;-9.33;69.18
75549;BME280;64133;56.002;37.208;2024-02-14T19:50:53;100316.07;;;-9.42;68.67
75549;BME280;64133;56.002;37.208;2024-02-14T20:01:12;100308.59;;;-9.60;68.91
75549;BME280;64133;56.002;37.208;2024-02-14T20:06:17;100319.07;;;-9.70;68.99
75549;BME280;64133;56.002;37.208;2024-02-14T20:11:22;100322.05;;;-9.69;68.95
75549;BME280;64133;56.002;37.208;2024-02-14T20:16:27;100321.27;;;-9.65;68.83
75549;BME280;64133;56.002;37.208;2024-02-14T20:21:33;100326.09;;;-9.83;68.81
75549;BME280;64133;56.002;37.208;2024-02-14T20:26:48;100325.47;;;-9.67;69.08
75549;BME280;64133;56.002;37.208;2024-02-14T20:31:57;100336.28;;;-9.55;69.17
75549;BME280;64133;56.002;37.208;2024-02-14T20:37:09;100300.14;;;-9.84;68.93
75549;BME280;64133;56.002;37.208;2024-02-14T20:42:15;100331.33;;;-9.74;68.58
75549;BME280;64133;56.002;37.208;2024-02-14T20:47:25;100328.71;;;-9.79;69.00
75549;BME280;64133;56.002;37.208;2024-02-14T20:52:31;100324.33;;;-9.58;68.58
75549;BME280;64133;56.002;37.208;2024-02-14T20:57:36;100336.58;;;-9.64;68.76
75549;BME280;64133;56.002;37.208;2024-02-14T21:02:41;100341.02;;;-9.52;69.08
75549;BME280;64133;56.002;37.208;2024-02-14T21:07:46;100335.95;;;-9.77;68.19
75549;BME280;64133;56.002;37.208;2024-02-14T21:12:51;100342.58;;;-9.88;68.53
75549;BME280;64133;56.002;37.208;2024-02-14T21:17:56;100342.75;;;-9.76;68.64
75549;BME280;64133;56.002;37.208;2024-02-14T21:23:01;100344.00;;;-9.79;68.47
75549;BME280;64133;56.002;37.208;2024-02-14T21:28:06;100344.42;;;-9.79;68.99
75549;BME280;64133;56.002;37.208;2024-02-14T21:33:13;100345.58;;;-9.85;68.49
75549;BME280;64133;56.002;37.208;2024-02-14T21:38:19;100341.04;;;-10.03;68.57
75549;BME280;64133;56.002;37.208;2024-02-14T21:43:25;100351.16;;;-10.08;68.66
75549;BME280;64133;56.002;37.208;2024-02-14T21:48:30;100341.91;;;-10.01;68.82
75549;BME280;64133;56.002;37.208;2024-02-14T21:53:35;100340.35;;;-9.93;69.01
75549;BME280;64133;56.002;37.208;2024-02-14T21:58:40;100344.92;;;-10.24;69.23
75549;BME280;64133;56.002;37.208;2024-02-14T22:03:45;100343.36;;;-10.17;69.54
75549;BME280;64133;56.002;37.208;2024-02-14T22:08:50;100335.31;;;-10.15;69.00
75549;BME280;64133;56.002;37.208;2024-02-14T22:13:55;100337.58;;;-10.07;69.35
75549;BME280;64133;56.002;37.208;2024-02-14T22:19:00;100346.64;;;-9.98;69.60
75549;BME280;64133;56.002;37.208;2024-02-14T22:24:06;100349.66;;;-9.97;68.99
75549;BME280;64133;56.002;37.208;2024-02-14T22:29:12;100354.42;;;-10.15;68.61
75549;BME280;64133;56.002;37.208;2024-02-14T22:34:17;100350.59;;;-10.15;69.66
75549;BME280;64133;56.002;37.208;2024-02-14T22:39:22;100345.41;;;-10.21;69.48
75549;BME280;64133;56.002;37.208;2024-02-14T22:44:27;100343.88;;;-10.36;70.23
75549;BME280;64133;56.002;37.208;2024-02-14T22:49:32;100341.04;;;-10.30;70.64
75549;BME280;64133;56.002;37.208;2024-02-14T22:54:37;100348.34;;;-10.25;70.36
75549;BME280;64133;56.002;37.208;2024-02-14T22:59:42;100354.40;;;-10.42;70.73
75549;BME280;64133;56.002;37.208;2024-02-14T23:04:47;100355.34;;;-10.10;70.56
75549;BME280;64133;56.002;37.208;2024-02-14T23:09:52;100352.07;;;-10.04;70.53
75549;BME280;64133;56.002;37.208;2024-02-14T23:14:57;100347.20;;;-10.41;71.26
75549;BME280;64133;56.002;37.208;2024-02-14T23:20:02;100332.16;;;-10.52;71.88
75549;BME280;64133;56.002;37.208;2024-02-14T23:25:09;100328.50;;;-10.43;72.89
75549;BME280;64133;56.002;37.208;2024-02-14T23:30:15;100333.80;;;-10.54;72.59
75549;BME280;64133;56.002;37.208;2024-02-14T23:35:20;100326.45;;;-10.39;73.01
75549;BME280;64133;56.002;37.208;2024-02-14T23:40:25;100323.11;;;-10.58;72.65
75549;BME280;64133;56.002;37.208;2024-02-14T23:45:30;100334.00;;;-10.45;72.63
75549;BME280;64133;56.002;37.208;2024-02-14T23:50:35;100327.44;;;-10.54;72.52
75549;BME280;64133;56.002;37.208;2024-02-14T23:55:40;100315.80;;;-10.65;73.50
